Aviation Digital Data Service (ADDS)

Output produced by METARs form (1017 UTC 28 September 2021)
found at http://www.aviationweather.gov/metar/data/
 
VTUU 281000Z 01005KT 340V050 9999 FEW030 32/25 Q1006 NOSIG
VTUU 280900Z 33005KT 300V010 9999 SCT030 33/25 Q1006 NOSIG
VTUU 280800Z 32005KT 290V350 9999 SCT030 32/25 Q1007 NOSIG
VTUU 280700Z 31005KT 270V030 9999 SCT030 32/25 Q1007 NOSIG
VTUU 280600Z VRB04KT 9999 SCT030 32/25 Q1009 NOSIG
VTUU 280500Z VRB01KT 9999 SCT030 32/25 Q1010 NOSIG
VTUU 280400Z VRB02KT 9999 FEW025 33/26 Q1011 NOSIG
VTUU 280300Z VRB02KT 9999 FEW020 31/27 Q1011 NOSIG
VTUU 280200Z 33004KT 290V080 9999 FEW020 29/25 Q1011 NOSIG
VTUU 280100Z VRB02KT 9999 FEW020 27/25 Q1011 NOSIG
VTUU 280000Z 30002KT CAVOK 26/26 Q1010 NOSIG
VTUU 272300Z 32002KT 8000 NSC 24/24 Q1010 NOSIG
VTUU 272200Z VRB02KT 9999 FEW040 25/25 Q1009 NOSIG
VTUU 272100Z 00000KT CAVOK 25/25 Q1009 NOSIG
VTUU 272000Z 00000KT CAVOK 25/25 Q1009 NOSIG
VTUU 271900Z 00000KT CAVOK 26/26 Q1009 NOSIG
VTUU 271800Z 00000KT CAVOK 26/26 Q1009 NOSIG
VTUU 271700Z 00000KT CAVOK 26/26 Q1010 NOSIG
VTUU 271600Z 00000KT CAVOK 26/26 Q1010 NOSIG
VTUU 271500Z 00000KT CAVOK 26/26 Q1010 NOSIG
VTUU 271400Z 00000KT CAVOK 26/26 Q1010 NOSIG
VTUU 271300Z 00000KT CAVOK 27/26 Q1009 NOSIG
VTUU 271200Z 04003KT 020V080 CAVOK 28/26 Q1008 NOSIG
VTUU 271100Z 03004KT 9999 FEW040 29/25 Q1008 NOSIG
TAF VTUU 280500Z 2806/2906 31002KT 9999 FEW030 
     BECMG 2817/2820 19002KT